createdAt,value
2023-03-16T00:00:49.833Z,58.17
2023-03-16T00:03:20.937Z,56.19
2023-03-16T00:05:52.355Z,55.24
2023-03-16T00:08:20.584Z,55.20
2023-03-16T00:10:48.529Z,52.14
2023-03-16T00:13:16.668Z,52.85
2023-03-16T00:15:57.799Z,53.94
2023-03-16T00:18:27.878Z,55.15
2023-03-16T00:20:58.246Z,52.85
2023-03-16T00:23:28.829Z,52.22
2023-03-16T00:25:57.541Z,51.97
2023-03-16T00:28:26.381Z,51.85
2023-03-16T00:30:59.440Z,54.36
2023-03-16T00:33:27.645Z,53.51
2023-03-16T00:36:02.704Z,52.44
2023-03-16T00:38:35.109Z,52.20
2023-03-16T00:41:04.397Z,50.67
2023-03-16T00:43:41.343Z,51.92
2023-03-16T00:46:09.929Z,51.78
2023-03-16T00:48:39.716Z,51.50
2023-03-16T00:51:13.321Z,53.42
2023-03-16T00:53:43.568Z,50.79
2023-03-16T00:56:12.539Z,52.33
2023-03-16T00:58:43.835Z,51.95
2023-03-16T01:01:19.207Z,53.18
2023-03-16T01:03:46.800Z,52.19
2023-03-16T01:06:17.259Z,50.90
2023-03-16T01:08:45.624Z,54.31
2023-03-16T01:11:16.701Z,55.40
2023-03-16T01:13:47.584Z,52.84
2023-03-16T01:16:23.369Z,51.92
2023-03-16T01:18:52.475Z,52.46
2023-03-16T01:21:20.240Z,51.64
2023-03-16T01:23:48.326Z,53.85
2023-03-16T01:26:18.104Z,54.97
2023-03-16T01:28:48.283Z,56.96
2023-03-16T01:31:17.316Z,51.94
2023-03-16T01:33:45.935Z,51.54
2023-03-16T01:36:19.533Z,52.25
2023-03-16T01:38:54.672Z,54.59
2023-03-16T01:41:24.585Z,58.22
2023-03-16T01:43:58.743Z,58.95
2023-03-16T01:46:31.963Z,59.97
2023-03-16T01:49:33.566Z,60.64
2023-03-16T01:52:15.044Z,56.61
2023-03-16T01:54:50.604Z,52.76
2023-03-16T01:57:24.342Z,56.42
2023-03-16T02:00:19.175Z,55.32
2023-03-16T02:03:18.989Z,58.15
2023-03-16T02:06:05.288Z,58.35
2023-03-16T02:08:38.637Z,58.53
2023-03-16T02:11:09.307Z,58.50
2023-03-16T02:14:03.461Z,60.55
2023-03-16T02:16:31.467Z,59.86
2023-03-16T02:18:59.344Z,60.62
2023-03-16T02:21:40.402Z,59.69
2023-03-16T02:24:08.655Z,58.22
2023-03-16T02:27:08.689Z,57.56
2023-03-16T02:30:02.986Z,57.46
2023-03-16T02:32:40.186Z,59.64
2023-03-16T02:35:10.043Z,60.12
2023-03-16T02:37:37.792Z,57.25
2023-03-16T02:40:22.817Z,60.27
2023-03-16T02:43:05.110Z,61.93
2023-03-16T02:45:58.714Z,60.00
2023-03-16T02:48:37.300Z,59.84
2023-03-16T02:51:06.254Z,60.78
2023-03-16T02:53:33.637Z,59.38
2023-03-16T02:56:05.310Z,59.65
2023-03-16T02:58:36.645Z,59.37
2023-03-16T03:01:10.439Z,59.34
2023-03-16T03:03:38.851Z,62.18
2023-03-16T03:06:06.904Z,59.50
2023-03-16T03:08:37.189Z,59.56
2023-03-16T03:11:05.276Z,59.55
2023-03-16T03:13:34.728Z,60.19
2023-03-16T03:16:02.736Z,59.12
2023-03-16T03:18:31.400Z,54.79
2023-03-16T03:20:59.669Z,58.66
2023-03-16T03:23:26.964Z,59.25
2023-03-16T03:25:58.623Z,60.30
2023-03-16T03:28:27.946Z,60.70
2023-03-16T03:30:55.884Z,62.23
2023-03-16T03:33:23.249Z,60.03
2023-03-16T03:35:55.831Z,60.51
2023-03-16T03:38:24.718Z,61.83
2023-03-16T03:40:53.861Z,58.64
2023-03-16T03:43:21.888Z,60.96
2023-03-16T03:45:55.195Z,59.04
2023-03-16T03:48:22.538Z,61.86
2023-03-16T03:50:50.505Z,58.69
2023-03-16T03:53:32.508Z,60.87
2023-03-16T03:56:20.553Z,59.95
2023-03-16T03:58:47.871Z,58.13
2023-03-16T04:01:22.466Z,57.30
2023-03-16T04:03:49.987Z,59.74
2023-03-16T04:06:17.561Z,56.26
2023-03-16T04:08:45.134Z,56.89
2023-03-16T04:11:15.925Z,58.43
2023-03-16T04:13:43.396Z,60.41
2023-03-16T04:16:11.450Z,58.47
2023-03-16T04:18:43.365Z,60.70
2023-03-16T04:21:16.033Z,57.03
2023-03-16T04:23:45.377Z,61.36
2023-03-16T04:26:12.956Z,63.85
2023-03-16T04:28:43.446Z,63.90
2023-03-16T04:31:14.473Z,59.16
2023-03-16T04:33:45.903Z,61.02
2023-03-16T04:36:13.976Z,59.09
2023-03-16T04:38:42.118Z,59.44
2023-03-16T04:41:11.566Z,62.58
2023-03-16T04:43:45.782Z,58.27
2023-03-16T04:46:26.933Z,62.55
2023-03-16T04:48:58.608Z,59.98
2023-03-16T04:51:29.258Z,62.69
2023-03-16T04:54:05.545Z,62.30
2023-03-16T04:56:41.633Z,65.09
2023-03-16T04:59:27.193Z,62.85
2023-03-16T05:02:12.598Z,65.82
2023-03-16T05:04:40.150Z,65.27
2023-03-16T05:07:11.523Z,64.14
2023-03-16T05:09:42.501Z,63.90
2023-03-16T05:12:11.224Z,64.93
2023-03-16T05:14:39.900Z,61.47
2023-03-16T05:17:23.946Z,63.30
2023-03-16T05:19:51.864Z,63.61
2023-03-16T05:22:20.937Z,63.65
2023-03-16T05:25:05.805Z,64.95
2023-03-16T05:27:34.311Z,64.60
2023-03-16T05:30:04.576Z,63.12
2023-03-16T05:32:33.159Z,62.14
2023-03-16T05:35:03.267Z,63.48
2023-03-16T05:37:31.682Z,62.82
2023-03-16T05:39:59.260Z,62.36
2023-03-16T05:42:29.514Z,64.30
2023-03-16T05:45:01.036Z,64.94
2023-03-16T05:47:36.645Z,66.74
2023-03-16T05:50:09.282Z,63.47
2023-03-16T05:52:41.340Z,61.73
2023-03-16T05:55:17.480Z,65.52
2023-03-16T05:57:50.286Z,60.20
2023-03-16T06:00:19.089Z,67.96
2023-03-16T06:02:53.585Z,67.91
2023-03-16T06:05:23.117Z,64.45
2023-03-16T06:07:52.166Z,65.75
2023-03-16T06:10:19.876Z,58.55
2023-03-16T06:12:47.128Z,55.43
2023-03-16T06:15:14.978Z,55.23
2023-03-16T06:17:42.397Z,54.51
2023-03-16T06:20:11.469Z,52.47
2023-03-16T06:22:41.233Z,54.06
2023-03-16T06:25:10.581Z,53.12
2023-03-16T06:27:38.627Z,53.79
2023-03-16T06:30:12.172Z,52.12
2023-03-16T06:32:42.186Z,51.04
2023-03-16T06:35:09.925Z,49.84
2023-03-16T06:37:40.532Z,53.96
2023-03-16T06:40:28.208Z,49.39
2023-03-16T06:42:55.989Z,53.53
2023-03-16T06:45:25.712Z,48.95
2023-03-16T06:47:56.313Z,48.01
2023-03-16T06:50:24.698Z,48.05
2023-03-16T06:52:52.028Z,49.90
2023-03-16T06:55:20.522Z,47.86
2023-03-16T06:57:49.506Z,46.08
2023-03-16T07:00:19.600Z,47.17
2023-03-16T07:02:47.082Z,45.85
2023-03-16T07:05:16.196Z,46.82
2023-03-16T07:07:43.964Z,45.43
2023-03-16T07:10:14.035Z,45.32
2023-03-16T07:12:42.426Z,45.19
2023-03-16T07:15:11.877Z,45.24
2023-03-16T07:17:39.927Z,45.20
2023-03-16T07:20:10.829Z,45.83
2023-03-16T07:22:40.243Z,45.11
2023-03-16T07:25:11.388Z,44.54
2023-03-16T07:27:43.977Z,46.04
2023-03-16T07:30:14.348Z,47.74
2023-03-16T07:32:44.398Z,48.19
2023-03-16T07:35:11.878Z,49.35
2023-03-16T07:37:39.517Z,49.19
2023-03-16T07:40:09.395Z,49.85
2023-03-16T07:42:37.806Z,50.57
2023-03-16T07:45:28.897Z,50.96
2023-03-16T07:47:56.829Z,51.11
2023-03-16T07:50:44.992Z,52.27
2023-03-16T07:53:12.371Z,52.12
2023-03-16T07:55:42.836Z,52.55
2023-03-16T07:58:10.875Z,52.35
2023-03-16T08:00:40.744Z,52.22
2023-03-16T08:03:08.397Z,53.14
2023-03-16T08:05:36.238Z,53.06
2023-03-16T08:08:09.867Z,52.63
2023-03-16T08:10:38.628Z,53.05
2023-03-16T08:13:15.338Z,52.86
2023-03-16T08:15:58.539Z,50.87
2023-03-16T08:18:35.207Z,50.63
2023-03-16T08:21:03.173Z,50.79
2023-03-16T08:23:33.765Z,50.62
2023-03-16T08:26:01.280Z,50.76
2023-03-16T08:28:28.845Z,48.91
2023-03-16T08:30:58.598Z,46.52
2023-03-16T08:33:38.775Z,44.89
2023-03-16T08:36:08.635Z,44.06
2023-03-16T08:38:36.312Z,43.14
2023-03-16T08:41:08.309Z,41.29
2023-03-16T08:43:37.565Z,39.07
2023-03-16T08:46:05.548Z,37.88
2023-03-16T08:48:44.983Z,36.93
2023-03-16T08:51:12.532Z,38.34
2023-03-16T08:53:39.745Z,36.28
2023-03-16T08:56:08.776Z,35.56
2023-03-16T08:58:36.470Z,36.74
2023-03-16T09:01:05.700Z,35.44
2023-03-16T09:03:33.551Z,34.06
2023-03-16T09:06:05.302Z,35.36
2023-03-16T09:08:33.020Z,35.40
2023-03-16T09:11:01.633Z,34.10
2023-03-16T09:13:28.895Z,35.00
2023-03-16T09:15:56.983Z,35.19
2023-03-16T09:18:26.276Z,34.50
2023-03-16T09:20:59.913Z,33.97
2023-03-16T09:23:27.783Z,33.16
2023-03-16T09:26:02.033Z,32.98
2023-03-16T09:28:30.034Z,32.05
2023-03-16T09:31:01.572Z,33.39
2023-03-16T09:33:30.106Z,32.60
2023-03-16T09:35:58.715Z,33.39
2023-03-16T09:38:28.979Z,34.18
2023-03-16T09:41:07.417Z,35.14
2023-03-16T09:43:46.152Z,35.12
2023-03-16T09:46:16.627Z,34.39
2023-03-16T09:48:45.057Z,35.40
2023-03-16T09:51:40.306Z,36.14
2023-03-16T09:54:22.840Z,35.24
2023-03-16T09:56:57.725Z,34.64
2023-03-16T09:59:25.263Z,33.25
2023-03-16T10:02:02.536Z,33.79
2023-03-16T10:04:35.887Z,35.75
2023-03-16T10:07:20.154Z,35.31
2023-03-16T10:09:55.024Z,33.48
2023-03-16T10:12:25.137Z,31.88
2023-03-16T10:14:57.558Z,32.30
2023-03-16T10:17:45.712Z,33.48
2023-03-16T10:20:21.170Z,32.81
2023-03-16T10:22:50.887Z,34.25
2023-03-16T10:25:27.687Z,33.77
2023-03-16T10:27:57.423Z,33.23
2023-03-16T10:30:36.268Z,35.53
2023-03-16T10:33:05.669Z,34.32
2023-03-16T10:35:33.762Z,35.56
2023-03-16T10:38:01.059Z,36.32
2023-03-16T10:40:31.420Z,36.60
2023-03-16T10:43:05.283Z,35.44
2023-03-16T10:45:35.018Z,36.83
2023-03-16T10:48:12.812Z,35.95
2023-03-16T10:50:41.914Z,33.72
2023-03-16T10:53:16.668Z,33.95
2023-03-16T10:55:45.074Z,36.42
2023-03-16T10:58:22.698Z,36.11
2023-03-16T11:00:50.249Z,36.89
2023-03-16T11:03:27.601Z,36.65
2023-03-16T11:06:02.361Z,34.89
2023-03-16T11:08:34.145Z,35.79
2023-03-16T11:11:08.470Z,33.25
2023-03-16T11:13:37.822Z,32.86
2023-03-16T11:16:11.366Z,34.41
2023-03-16T11:18:42.719Z,34.96
2023-03-16T11:21:17.316Z,35.03
2023-03-16T11:23:48.491Z,33.32
2023-03-16T11:26:21.327Z,32.32
2023-03-16T11:28:54.608Z,33.18
2023-03-16T11:31:42.837Z,33.85
2023-03-16T11:34:14.786Z,33.82
2023-03-16T11:36:45.284Z,33.84
2023-03-16T11:39:31.816Z,34.51
2023-03-16T11:42:04.224Z,34.62
2023-03-16T11:44:44.755Z,34.76
2023-03-16T11:47:15.009Z,35.00
2023-03-16T11:49:45.855Z,33.97
2023-03-16T11:52:39.900Z,36.40
2023-03-16T11:55:30.473Z,34.32
2023-03-16T11:58:00.939Z,34.97
2023-03-16T12:00:48.651Z,36.43
2023-03-16T12:03:34.966Z,37.19
2023-03-16T12:06:22.137Z,36.83
2023-03-16T12:08:54.604Z,35.39
2023-03-16T12:11:32.031Z,35.33
2023-03-16T12:14:05.377Z,36.12
2023-03-16T12:16:49.191Z,36.78
2023-03-16T12:19:26.975Z,37.24
2023-03-16T12:22:02.749Z,35.36
2023-03-16T12:24:34.727Z,35.46
2023-03-16T12:27:02.690Z,35.40
2023-03-16T12:29:37.653Z,36.58
2023-03-16T12:32:08.494Z,33.84
2023-03-16T12:34:51.143Z,34.45
2023-03-16T12:37:22.709Z,33.99
2023-03-16T12:40:09.369Z,34.07
2023-03-16T12:42:48.179Z,34.21
2023-03-16T12:45:18.211Z,34.40
2023-03-16T12:47:45.493Z,34.13
2023-03-16T12:50:15.404Z,33.94
2023-03-16T12:52:44.555Z,32.90
2023-03-16T12:55:14.901Z,35.31
2023-03-16T12:57:43.123Z,33.16
2023-03-16T13:00:11.069Z,34.10
2023-03-16T13:02:43.043Z,33.33
2023-03-16T13:05:28.827Z,32.97
2023-03-16T13:08:08.959Z,34.39
2023-03-16T13:10:37.700Z,33.66
2023-03-16T13:13:11.506Z,33.57
2023-03-16T13:15:39.812Z,34.67
2023-03-16T13:18:27.207Z,33.33
2023-03-16T13:20:59.038Z,33.82
2023-03-16T13:23:46.579Z,33.48
2023-03-16T13:26:16.212Z,33.68
2023-03-16T13:28:51.615Z,33.66
2023-03-16T13:31:24.842Z,34.65
2023-03-16T13:33:55.141Z,34.07
2023-03-16T13:36:23.346Z,33.71
2023-03-16T13:39:05.258Z,34.24
2023-03-16T13:41:32.731Z,34.58
2023-03-16T13:44:00.665Z,35.47
2023-03-16T13:46:31.090Z,35.04
2023-03-16T13:49:01.810Z,34.03
2023-03-16T13:51:31.308Z,33.69
2023-03-16T13:53:59.711Z,33.93
2023-03-16T13:56:29.436Z,33.99
2023-03-16T13:58:58.642Z,33.43
2023-03-16T14:01:28.080Z,33.80
2023-03-16T14:03:58.454Z,34.36
2023-03-16T14:06:27.600Z,34.27
2023-03-16T14:09:01.540Z,34.95
2023-03-16T14:11:29.737Z,33.48
2023-03-16T14:14:01.172Z,33.38
2023-03-16T14:16:29.890Z,33.42
2023-03-16T14:19:08.754Z,36.67
2023-03-16T14:21:36.063Z,33.86
2023-03-16T14:24:08.247Z,33.57
2023-03-16T14:26:41.064Z,34.13
2023-03-16T14:29:16.576Z,33.66
2023-03-16T14:31:44.879Z,33.70
2023-03-16T14:34:21.561Z,33.44
2023-03-16T14:36:49.101Z,33.35
2023-03-16T14:39:19.450Z,33.03
2023-03-16T14:41:50.786Z,32.90
2023-03-16T14:44:21.153Z,34.93
2023-03-16T14:46:48.999Z,33.85
2023-03-16T14:49:20.469Z,34.30
2023-03-16T14:51:49.552Z,34.27
2023-03-16T14:54:18.252Z,35.82
2023-03-16T14:56:50.203Z,36.46
2023-03-16T14:59:18.415Z,35.01
2023-03-16T15:01:46.250Z,35.96
2023-03-16T15:04:15.279Z,36.58
2023-03-16T15:06:43.088Z,37.55
2023-03-16T15:09:28.395Z,37.36
2023-03-16T15:11:57.816Z,36.49
2023-03-16T15:14:44.277Z,35.48
2023-03-16T15:17:12.564Z,36.08
2023-03-16T15:19:40.086Z,36.16
2023-03-16T15:22:11.379Z,35.73
2023-03-16T15:24:39.252Z,37.42
2023-03-16T15:27:18.295Z,36.64
2023-03-16T15:29:45.988Z,36.57
2023-03-16T15:32:15.731Z,36.38
2023-03-16T15:34:46.014Z,36.28
2023-03-16T15:37:15.505Z,36.20
2023-03-16T15:39:44.107Z,36.57
2023-03-16T15:42:13.308Z,37.80
2023-03-16T15:44:41.027Z,38.15
2023-03-16T15:47:09.223Z,38.33
2023-03-16T15:49:47.216Z,38.11
2023-03-16T15:52:26.814Z,38.22
2023-03-16T15:54:53.986Z,37.80
2023-03-16T15:57:21.608Z,38.14
2023-03-16T15:59:49.078Z,37.17
2023-03-16T16:02:28.102Z,37.37
2023-03-16T16:04:56.344Z,38.10
2023-03-16T16:07:23.591Z,37.84
2023-03-16T16:09:51.224Z,38.74
2023-03-16T16:12:20.484Z,37.94
2023-03-16T16:14:47.823Z,39.21
2023-03-16T16:17:36.528Z,40.97
2023-03-16T16:20:22.889Z,39.48
2023-03-16T16:22:52.285Z,38.94
2023-03-16T16:25:23.953Z,38.60
2023-03-16T16:27:51.738Z,38.48
2023-03-16T16:30:21.484Z,38.89
2023-03-16T16:32:49.366Z,38.88
2023-03-16T16:35:17.963Z,40.42
2023-03-16T16:37:45.773Z,39.93
2023-03-16T16:40:36.505Z,41.71
2023-03-16T16:43:05.338Z,39.28
2023-03-16T16:45:32.777Z,40.34
2023-03-16T16:47:59.992Z,40.22
2023-03-16T16:50:27.769Z,40.98
2023-03-16T16:52:55.373Z,40.18
2023-03-16T16:55:23.857Z,40.84
2023-03-16T16:57:53.928Z,41.14
2023-03-16T17:00:23.185Z,42.91
2023-03-16T17:02:53.957Z,41.83
2023-03-16T17:05:22.901Z,43.20
2023-03-16T17:07:51.349Z,46.16
2023-03-16T17:10:21.354Z,43.26
2023-03-16T17:12:54.773Z,43.15
2023-03-16T17:15:29.824Z,43.47
2023-03-16T17:18:17.633Z,45.21
2023-03-16T17:20:45.804Z,46.00
2023-03-16T17:23:19.184Z,46.87
2023-03-16T17:25:46.890Z,47.87
2023-03-16T17:28:16.813Z,46.91
2023-03-16T17:30:45.783Z,47.18
2023-03-16T17:33:13.989Z,45.85
2023-03-16T17:35:41.720Z,46.74
2023-03-16T17:38:27.318Z,47.96
2023-03-16T17:40:55.363Z,48.74
2023-03-16T17:43:23.287Z,49.31
2023-03-16T17:45:51.775Z,51.72
2023-03-16T17:48:20.431Z,50.03
2023-03-16T17:50:48.754Z,51.45
2023-03-16T17:53:17.019Z,49.32
2023-03-16T17:55:46.377Z,50.28
2023-03-16T17:58:16.933Z,52.91
2023-03-16T18:00:47.049Z,53.06
2023-03-16T18:03:17.364Z,54.54
2023-03-16T18:05:45.086Z,53.59
2023-03-16T18:08:12.376Z,53.70
2023-03-16T18:10:40.967Z,53.13
2023-03-16T18:13:13.738Z,54.09
2023-03-16T18:15:41.031Z,54.66
2023-03-16T18:18:13.959Z,55.65
2023-03-16T18:20:41.233Z,56.62
2023-03-16T18:23:19.149Z,56.61
2023-03-16T18:25:48.693Z,57.24
2023-03-16T18:28:16.762Z,57.79
2023-03-16T18:30:46.373Z,58.37
2023-03-16T18:33:25.902Z,58.27
2023-03-16T18:35:54.955Z,55.69
2023-03-16T18:38:25.701Z,57.53
2023-03-16T18:40:53.172Z,56.86
2023-03-16T18:43:20.604Z,56.65
2023-03-16T18:45:48.813Z,57.17
2023-03-16T18:48:30.768Z,57.81
2023-03-16T18:50:58.522Z,58.46
2023-03-16T18:53:28.319Z,59.62
2023-03-16T18:55:57.522Z,59.42
2023-03-16T18:58:25.605Z,59.66
2023-03-16T19:00:57.539Z,61.88
2023-03-16T19:03:29.241Z,61.44
2023-03-16T19:05:57.796Z,63.64
2023-03-16T19:08:27.057Z,63.80
2023-03-16T19:10:56.672Z,64.22
2023-03-16T19:13:24.784Z,62.95
2023-03-16T19:15:53.201Z,63.74
2023-03-16T19:18:21.602Z,64.00
2023-03-16T19:20:50.379Z,63.69
2023-03-16T19:23:30.945Z,64.10
2023-03-16T19:25:58.785Z,62.99
2023-03-16T19:28:34.059Z,63.13
2023-03-16T19:31:02.959Z,62.06
2023-03-16T19:33:30.499Z,61.55
2023-03-16T19:35:58.483Z,62.70
2023-03-16T19:38:26.536Z,62.72
2023-03-16T19:40:59.561Z,62.17
2023-03-16T19:43:28.587Z,64.02
2023-03-16T19:45:59.964Z,64.33
2023-03-16T19:48:32.832Z,63.44
2023-03-16T19:51:01.102Z,62.74
2023-03-16T19:53:29.519Z,64.95
2023-03-16T19:55:57.558Z,65.93
2023-03-16T19:58:25.664Z,66.18
2023-03-16T20:00:53.625Z,64.47
2023-03-16T20:03:21.946Z,66.37
2023-03-16T20:05:49.843Z,66.03
2023-03-16T20:08:20.604Z,65.97
2023-03-16T20:10:48.648Z,66.95
2023-03-16T20:13:16.217Z,67.00
2023-03-16T20:15:43.740Z,66.48
2023-03-16T20:18:13.695Z,68.14
2023-03-16T20:20:42.432Z,68.74
2023-03-16T20:23:17.654Z,67.01
2023-03-16T20:25:46.239Z,66.40
2023-03-16T20:28:17.955Z,67.86
2023-03-16T20:30:45.747Z,69.01
2023-03-16T20:33:23.239Z,68.59
2023-03-16T20:35:53.593Z,69.15
2023-03-16T20:38:22.224Z,69.10
2023-03-16T20:40:52.625Z,66.75
2023-03-16T20:43:27.845Z,70.54
2023-03-16T20:45:57.893Z,68.69
2023-03-16T20:48:25.614Z,68.29
2023-03-16T20:50:54.741Z,69.78
2023-03-16T20:53:22.787Z,66.85
2023-03-16T20:55:50.805Z,66.17
2023-03-16T20:58:18.296Z,66.00
2023-03-16T21:00:46.812Z,68.15
2023-03-16T21:03:16.902Z,67.97
2023-03-16T21:05:44.980Z,66.92
2023-03-16T21:08:12.776Z,67.69
2023-03-16T21:10:40.981Z,68.79
2023-03-16T21:13:15.117Z,69.52
2023-03-16T21:15:42.585Z,69.79
2023-03-16T21:18:13.679Z,69.72
2023-03-16T21:20:42.176Z,69.63
2023-03-16T21:23:15.237Z,70.64
2023-03-16T21:25:49.045Z,69.46
2023-03-16T21:28:18.647Z,67.03
2023-03-16T21:30:47.946Z,68.79
2023-03-16T21:33:32.956Z,70.54
2023-03-16T21:36:01.713Z,70.71
2023-03-16T21:38:30.280Z,70.11
2023-03-16T21:40:58.809Z,72.49
2023-03-16T21:43:26.983Z,70.85
2023-03-16T21:45:55.146Z,71.63
2023-03-16T21:48:24.247Z,72.40
2023-03-16T21:50:52.468Z,70.08
2023-03-16T21:53:22.207Z,73.49
2023-03-16T21:55:50.444Z,74.15
2023-03-16T21:58:18.539Z,72.79
2023-03-16T22:00:46.873Z,71.14
2023-03-16T22:03:32.920Z,70.67
2023-03-16T22:06:05.292Z,72.29
2023-03-16T22:08:34.310Z,72.07
2023-03-16T22:11:02.059Z,71.69
2023-03-16T22:13:29.555Z,70.98
2023-03-16T22:15:57.626Z,72.76
2023-03-16T22:18:31.102Z,70.60
2023-03-16T22:20:59.225Z,70.97
2023-03-16T22:23:29.680Z,72.56
2023-03-16T22:25:57.081Z,71.53
2023-03-16T22:28:25.076Z,69.69
2023-03-16T22:30:52.472Z,70.09
2023-03-16T22:33:23.637Z,71.24
2023-03-16T22:35:51.256Z,71.37
2023-03-16T22:38:18.611Z,72.24
2023-03-16T22:40:45.933Z,71.91
2023-03-16T22:43:15.953Z,73.32
2023-03-16T22:45:43.580Z,71.98
2023-03-16T22:48:22.228Z,72.13
2023-03-16T22:50:50.250Z,71.57
2023-03-16T22:53:20.560Z,71.58
2023-03-16T22:55:48.331Z,71.01
2023-03-16T22:58:25.297Z,69.72
2023-03-16T23:00:52.791Z,69.42
2023-03-16T23:03:21.248Z,70.03
2023-03-16T23:05:49.114Z,67.84
2023-03-16T23:08:18.656Z,68.44
2023-03-16T23:10:46.253Z,69.83
2023-03-16T23:13:15.953Z,68.57
2023-03-16T23:15:45.753Z,68.77
2023-03-16T23:18:20.322Z,68.88
2023-03-16T23:20:47.996Z,70.57
2023-03-16T23:23:16.080Z,70.55
2023-03-16T23:25:43.655Z,70.03
2023-03-16T23:28:14.654Z,70.96
2023-03-16T23:30:41.985Z,70.37
2023-03-16T23:33:11.702Z,70.67
2023-03-16T23:35:39.807Z,69.88
2023-03-16T23:38:07.242Z,70.58
2023-03-16T23:40:36.247Z,69.72
2023-03-16T23:43:03.438Z,72.08
2023-03-16T23:45:30.670Z,72.85
2023-03-16T23:47:59.737Z,72.16
2023-03-16T23:50:29.402Z,72.39
2023-03-16T23:52:56.882Z,71.21
2023-03-16T23:55:24.893Z,70.77
2023-03-16T23:57:52.198Z,71.57
